Terminal Aerodrome Forecast
Issued by NWS

Home | Current Version | Previous Version | Text Only | Print | Product List | Glossary On
Versions: 1 2 3 4 5 6 7 8 9 10 11 12 13 14 15
292
FTUS45 KTFX 211741
TAFLWT
TAF
KLWT 211741Z 2118/2218 30010KT P6SM FEW050
     FM212000 30015G25KT P6SM FEW050
     FM220300 29008KT P6SM FEW050
     FM221200 VRB05KT P6SM FEW050=

USA.gov is the U.S. government's official web portal to all federal, state and local government web resources and services.